createdAt,value
2022-11-24T00:01:47.940Z,1.79
2022-11-24T00:05:49.930Z,1.76
2022-11-24T00:09:51.899Z,1.63
2022-11-24T00:13:55.242Z,1.46
2022-11-24T00:18:27.344Z,1.29
2022-11-24T00:22:57.791Z,1.21
2022-11-24T00:26:59.329Z,1.14
2022-11-24T00:31:02.362Z,1.14
2022-11-24T00:35:04.901Z,1.15
2022-11-24T00:39:14.808Z,1.23
2022-11-24T00:43:41.205Z,1.21
2022-11-24T00:48:32.979Z,1.26
2022-11-24T00:52:34.725Z,1.31
2022-11-24T00:56:36.318Z,1.33
2022-11-24T01:00:38.011Z,1.24
2022-11-24T01:04:39.595Z,1.11
2022-11-24T01:08:42.280Z,1.04
2022-11-24T01:12:43.950Z,0.86
2022-11-24T01:16:45.882Z,0.77
2022-11-24T01:20:47.535Z,0.68
2022-11-24T01:24:49.165Z,0.64
2022-11-24T01:28:55.658Z,0.70
2022-11-24T01:32:57.335Z,0.58
2022-11-24T01:36:58.866Z,0.50
2022-11-24T01:41:21.946Z,0.41
2022-11-24T01:45:41.063Z,0.33
2022-11-24T01:49:51.327Z,0.29
2022-11-24T01:54:00.831Z,0.22
2022-11-24T01:58:19.283Z,0.18
2022-11-24T02:02:21.972Z,0.15
2022-11-24T02:06:27.866Z,0.08
2022-11-24T02:10:29.974Z,-0.02
2022-11-24T02:14:32.177Z,-0.05
2022-11-24T02:18:34.486Z,-0.08
2022-11-24T02:22:51.122Z,-0.09
2022-11-24T02:26:53.017Z,0.09
2022-11-24T02:30:55.404Z,0.20
2022-11-24T02:35:07.424Z,0.30
2022-11-24T02:39:12.362Z,0.31
2022-11-24T02:43:18.189Z,0.35
2022-11-24T02:47:19.840Z,0.27
2022-11-24T02:51:21.627Z,0.21
2022-11-24T02:55:25.065Z,0.34
2022-11-24T02:59:26.801Z,0.28
2022-11-24T03:03:28.822Z,0.17
2022-11-24T03:07:30.555Z,0.10
2022-11-24T03:11:32.771Z,0.12
2022-11-24T03:15:35.103Z,0.06
2022-11-24T03:19:36.744Z,0.07
2022-11-24T03:23:38.342Z,0.03
2022-11-24T03:27:40.052Z,0.06
2022-11-24T03:31:41.745Z,0.10
2022-11-24T03:35:43.487Z,0.16
2022-11-24T03:39:45.103Z,0.16
2022-11-24T03:43:46.663Z,0.13
2022-11-24T03:48:48.139Z,0.15
2022-11-24T03:52:49.756Z,0.25
2022-11-24T03:56:51.378Z,0.12
2022-11-24T04:00:54.621Z,0.10
2022-11-24T04:04:56.249Z,0.09
2022-11-24T04:08:57.893Z,0.12
2022-11-24T04:12:59.443Z,0.14
2022-11-24T04:17:02.634Z,0.16
2022-11-24T04:21:04.291Z,0.15
2022-11-24T04:25:06.915Z,0.25
2022-11-24T04:29:09.672Z,0.25
2022-11-24T04:33:11.511Z,0.28
2022-11-24T04:37:13.049Z,0.31
2022-11-24T04:41:14.736Z,0.29
2022-11-24T04:45:16.326Z,0.27
2022-11-24T04:49:17.954Z,0.31
2022-11-24T04:53:19.475Z,0.31
2022-11-24T04:57:23.943Z,0.33
2022-11-24T05:01:25.780Z,0.41
2022-11-24T05:05:27.515Z,0.47
2022-11-24T05:09:54.908Z,0.51
2022-11-24T05:13:52.955Z,0.55
2022-11-24T05:17:55.171Z,0.60
2022-11-24T05:21:57.834Z,0.65
2022-11-24T05:26:01.082Z,0.72
2022-11-24T05:30:03.314Z,0.85
2022-11-24T05:34:04.842Z,0.98
2022-11-24T05:38:06.572Z,1.02
2022-11-24T05:42:27.060Z,0.98
2022-11-24T05:46:28.654Z,1.06
2022-11-24T05:50:30.212Z,0.98
2022-11-24T05:54:31.994Z,1.03
2022-11-24T05:58:33.800Z,0.94
2022-11-24T06:02:35.623Z,0.95
2022-11-24T06:06:37.331Z,0.96
2022-11-24T06:10:38.915Z,1.07
2022-11-24T06:14:40.947Z,1.20
2022-11-24T06:18:42.644Z,1.20
2022-11-24T06:22:44.233Z,1.24
2022-11-24T06:26:45.954Z,1.33
2022-11-24T06:30:47.457Z,1.39
2022-11-24T06:34:49.221Z,1.50
2022-11-24T06:38:50.852Z,1.60
2022-11-24T06:42:52.633Z,1.69
2022-11-24T06:46:56.479Z,1.79
2022-11-24T06:50:59.975Z,1.93
2022-11-24T06:55:01.611Z,2.01
2022-11-24T06:59:03.215Z,2.10
2022-11-24T07:03:04.880Z,2.02
2022-11-24T07:07:06.852Z,2.09
2022-11-24T07:11:10.927Z,2.13
2022-11-24T07:15:12.654Z,2.09
2022-11-24T07:19:14.337Z,2.19
2022-11-24T07:23:15.985Z,2.18
2022-11-24T07:27:17.584Z,2.25
2022-11-24T07:31:21.848Z,2.24
2022-11-24T07:35:23.524Z,2.28
2022-11-24T07:39:25.900Z,2.34
2022-11-24T07:43:28.668Z,2.43
2022-11-24T07:47:30.410Z,2.39
2022-11-24T07:51:32.065Z,2.43
2022-11-24T07:55:33.535Z,2.58
2022-11-24T07:59:35.177Z,2.64
2022-11-24T08:03:37.292Z,2.66
2022-11-24T08:07:39.238Z,2.76
2022-11-24T08:11:40.780Z,2.95
2022-11-24T08:15:42.351Z,3.15
2022-11-24T08:19:44.287Z,3.45
2022-11-24T08:23:46.241Z,3.71
2022-11-24T08:33:42.610Z,3.98
2022-11-24T08:37:45.731Z,4.14
2022-11-24T08:41:56.659Z,4.22
2022-11-24T08:46:17.316Z,4.29
2022-11-24T08:50:31.630Z,4.22
2022-11-24T08:54:36.459Z,4.18
2022-11-24T08:58:39.701Z,4.14
2022-11-24T09:08:06.758Z,4.18
2022-11-24T09:12:20.267Z,4.18
2022-11-24T09:16:30.111Z,4.18
2022-11-24T09:20:32.262Z,4.15
2022-11-24T09:24:36.177Z,4.15
2022-11-24T09:28:38.150Z,4.15
2022-11-24T09:33:30.168Z,4.21
2022-11-24T09:38:09.628Z,4.32
2022-11-24T09:42:19.464Z,4.43
2022-11-24T09:46:28.528Z,4.58
2022-11-24T09:50:57.017Z,4.81
2022-11-24T09:55:28.014Z,4.94
2022-11-24T09:59:31.251Z,5.05
2022-11-24T10:03:50.481Z,5.01
2022-11-24T10:08:21.047Z,5.05
2022-11-24T10:12:51.509Z,5.02
2022-11-24T10:17:18.000Z,5.06
2022-11-24T10:21:44.083Z,5.12
2022-11-24T10:25:52.118Z,5.23
2022-11-24T10:29:55.539Z,5.29
2022-11-24T10:34:30.009Z,5.19
2022-11-24T10:38:48.515Z,5.18
2022-11-24T10:42:51.500Z,5.22
2022-11-24T10:46:53.138Z,5.24
2022-11-24T10:51:06.497Z,5.30
2022-11-24T10:55:52.809Z,5.39
2022-11-24T10:59:56.906Z,5.44
2022-11-24T11:04:02.584Z,5.42
2022-11-24T11:08:45.086Z,5.47
2022-11-24T11:12:47.456Z,5.47
2022-11-24T11:16:57.853Z,5.76
2022-11-24T11:21:02.897Z,5.93
2022-11-24T11:25:23.621Z,5.92
2022-11-24T11:34:35.227Z,6.83
2022-11-24T11:38:40.184Z,7.07
2022-11-24T11:43:02.377Z,6.99
2022-11-24T11:47:16.244Z,6.79
2022-11-24T11:51:50.160Z,6.61
2022-11-24T11:56:24.218Z,6.57
2022-11-24T12:00:26.650Z,6.65
2022-11-24T12:05:01.865Z,6.60
2022-11-24T12:09:36.233Z,6.61
2022-11-24T12:14:25.733Z,6.83
2022-11-24T12:18:59.001Z,6.90
2022-11-24T12:23:31.858Z,6.85
2022-11-24T12:27:50.216Z,6.90
2022-11-24T12:32:19.948Z,6.82
2022-11-24T12:36:52.417Z,6.84
2022-11-24T12:41:41.543Z,6.88
2022-11-24T12:46:41.355Z,7.13
2022-11-24T12:51:33.165Z,7.42
2022-11-24T12:56:11.524Z,7.53
2022-11-24T13:00:31.757Z,7.47
2022-11-24T13:05:10.273Z,7.58
2022-11-24T13:09:15.753Z,7.51
2022-11-24T13:13:17.826Z,7.52
2022-11-24T13:17:58.434Z,7.52
2022-11-24T13:22:49.861Z,7.64
2022-11-24T13:27:13.965Z,8.31
2022-11-24T13:31:27.963Z,11.94
2022-11-24T13:35:30.516Z,13.52
2022-11-24T13:39:52.999Z,12.19
2022-11-24T13:44:16.494Z,10.75
2022-11-24T13:49:09.189Z,9.70
2022-11-24T13:53:42.707Z,9.00
2022-11-24T13:58:13.158Z,8.67
2022-11-24T14:02:23.897Z,8.41
2022-11-24T14:07:07.996Z,8.19
2022-11-24T14:11:17.301Z,8.02
2022-11-24T14:15:57.888Z,7.94
2022-11-24T14:20:22.119Z,7.77
2022-11-24T14:24:41.659Z,7.61
2022-11-24T14:28:47.345Z,7.49
2022-11-24T14:33:19.444Z,7.31
2022-11-24T14:38:15.404Z,7.28
2022-11-24T14:42:27.284Z,7.29
2022-11-24T14:46:29.047Z,7.22
2022-11-24T14:50:30.685Z,7.20
2022-11-24T14:54:36.706Z,7.17
2022-11-24T14:58:47.128Z,7.13
2022-11-24T15:02:53.330Z,7.26
2022-11-24T15:07:08.259Z,7.21
2022-11-24T15:11:11.867Z,7.34
2022-11-24T15:15:13.480Z,7.58
2022-11-24T15:19:16.759Z,7.47
2022-11-24T15:23:41.776Z,7.53
2022-11-24T15:27:45.717Z,7.59
2022-11-24T15:31:52.577Z,7.62
2022-11-24T15:35:55.154Z,7.45
2022-11-24T15:40:21.743Z,7.33
2022-11-24T15:44:23.814Z,7.29
2022-11-24T15:49:15.707Z,7.27
2022-11-24T15:53:24.478Z,7.32
2022-11-24T15:57:26.407Z,7.25
2022-11-24T16:02:33.735Z,7.17
2022-11-24T16:07:06.799Z,7.09
2022-11-24T16:11:35.957Z,7.27
2022-11-24T16:15:41.249Z,7.20
2022-11-24T16:19:43.574Z,7.16
2022-11-24T16:29:51.686Z,6.89
2022-11-24T16:33:53.202Z,6.76
2022-11-24T16:37:54.983Z,6.75
2022-11-24T16:41:56.668Z,6.55
2022-11-24T16:46:19.153Z,6.41
2022-11-24T16:50:22.026Z,6.35
2022-11-24T16:54:23.921Z,6.25
2022-11-24T16:58:25.510Z,6.12
2022-11-24T17:02:27.188Z,6.13
2022-11-24T17:06:29.150Z,6.21
2022-11-24T17:10:31.007Z,6.24
2022-11-24T17:14:32.953Z,6.28
2022-11-24T17:18:35.455Z,6.24
2022-11-24T17:22:36.847Z,6.28
2022-11-24T17:26:38.517Z,6.36
2022-11-24T17:30:40.020Z,6.45
2022-11-24T17:34:43.976Z,6.54
2022-11-24T17:38:45.695Z,6.52
2022-11-24T17:42:47.517Z,6.53
2022-11-24T17:46:49.151Z,6.44
2022-11-24T17:51:03.338Z,6.49
2022-11-24T17:55:05.417Z,6.46
2022-11-24T17:59:07.237Z,6.45
2022-11-24T18:03:08.690Z,6.44
2022-11-24T18:07:10.340Z,6.41
2022-11-24T18:11:24.602Z,6.33
2022-11-24T18:15:30.606Z,6.24
2022-11-24T18:19:32.209Z,6.06
2022-11-24T18:23:35.922Z,5.99
2022-11-24T18:27:37.721Z,6.03
2022-11-24T18:31:42.019Z,5.98
2022-11-24T18:35:44.540Z,6.05
2022-11-24T18:39:49.336Z,6.08
2022-11-24T18:43:50.920Z,6.11
2022-11-24T18:47:55.175Z,6.13
2022-11-24T18:51:59.371Z,6.17
2022-11-24T18:56:03.578Z,6.10
2022-11-24T19:00:06.635Z,6.12
2022-11-24T19:04:12.678Z,6.08
2022-11-24T19:08:16.245Z,6.03
2022-11-24T19:12:17.786Z,6.05
2022-11-24T19:16:23.289Z,6.05
2022-11-24T19:20:24.848Z,5.99
2022-11-24T19:24:26.627Z,5.99
2022-11-24T19:28:28.312Z,5.97
2022-11-24T19:32:31.360Z,5.97
2022-11-24T19:36:32.827Z,5.89
2022-11-24T19:40:34.395Z,5.82
2022-11-24T19:44:38.265Z,5.82
2022-11-24T19:48:45.323Z,5.82
2022-11-24T19:52:48.045Z,5.81
2022-11-24T19:56:49.950Z,5.78
2022-11-24T20:00:51.772Z,5.82
2022-11-24T20:04:53.454Z,5.78
2022-11-24T20:09:00.212Z,5.84
2022-11-24T20:13:04.574Z,5.93
2022-11-24T20:17:07.018Z,5.95
2022-11-24T20:21:19.627Z,5.92
2022-11-24T20:25:22.502Z,5.88
2022-11-24T20:29:24.601Z,5.95
2022-11-24T20:33:26.638Z,5.96
2022-11-24T20:37:29.520Z,5.97
2022-11-24T20:41:36.173Z,5.94
2022-11-24T20:45:40.196Z,5.97
2022-11-24T20:49:44.593Z,6.03
2022-11-24T20:53:46.356Z,6.10
2022-11-24T20:57:48.240Z,6.04
2022-11-24T21:01:51.543Z,6.12
2022-11-24T21:05:57.228Z,6.08
2022-11-24T21:09:58.748Z,6.02
2022-11-24T21:14:00.786Z,6.06
2022-11-24T21:18:03.138Z,6.15
2022-11-24T21:22:04.856Z,6.10
2022-11-24T21:26:13.023Z,6.06
2022-11-24T21:30:15.384Z,5.98
2022-11-24T21:34:18.560Z,6.01
2022-11-24T21:38:20.278Z,6.06
2022-11-24T21:42:21.752Z,6.14
2022-11-24T21:46:24.416Z,6.13
2022-11-24T21:50:25.920Z,6.17
2022-11-24T21:54:27.672Z,6.22
2022-11-24T21:58:29.773Z,6.29
2022-11-24T22:02:31.411Z,6.35
2022-11-24T22:06:33.276Z,6.37
2022-11-24T22:10:34.956Z,6.32
2022-11-24T22:14:40.395Z,6.33
2022-11-24T22:18:43.816Z,6.38
2022-11-24T22:22:50.509Z,6.36
2022-11-24T22:27:20.623Z,6.31
2022-11-24T22:31:24.939Z,6.30
2022-11-24T22:35:28.243Z,6.37
2022-11-24T22:39:29.942Z,6.44
2022-11-24T22:44:13.713Z,6.45
2022-11-24T22:48:19.909Z,6.35
2022-11-24T22:52:21.658Z,6.34
2022-11-24T22:57:13.418Z,6.25
2022-11-24T23:01:40.913Z,6.15
2022-11-24T23:05:42.384Z,6.10
2022-11-24T23:10:16.064Z,6.04
2022-11-24T23:14:17.790Z,6.10
2022-11-24T23:18:19.373Z,6.14
2022-11-24T23:22:55.254Z,6.22
2022-11-24T23:26:57.079Z,6.05
2022-11-24T23:31:03.848Z,5.87
2022-11-24T23:35:09.699Z,5.70
2022-11-24T23:39:15.446Z,5.57
2022-11-24T23:43:17.794Z,5.52
2022-11-24T23:47:57.895Z,5.45
2022-11-24T23:52:24.726Z,5.30
2022-11-24T23:56:33.345Z,5.10
